createdAt,value
2022-10-13T00:00:07.526Z,18.91
2022-10-13T00:00:17.526Z,18.92
2022-10-13T00:00:27.526Z,18.91
2022-10-13T00:00:37.561Z,18.90
2022-10-13T00:00:47.596Z,18.91
2022-10-13T00:00:57.590Z,18.92
2022-10-13T00:01:07.565Z,18.93
2022-10-13T00:01:17.586Z,18.93
2022-10-13T00:01:27.580Z,18.92
2022-10-13T00:01:37.534Z,18.93
2022-10-13T00:01:47.538Z,18.93
2022-10-13T00:01:57.533Z,18.94
2022-10-13T00:02:07.534Z,18.93
2022-10-13T00:02:17.799Z,18.94
2022-10-13T00:02:27.536Z,18.93
2022-10-13T00:02:37.540Z,18.94
2022-10-13T00:02:47.539Z,18.93
2022-10-13T00:02:57.536Z,18.92
2022-10-13T00:03:07.538Z,18.94
2022-10-13T00:03:17.540Z,18.93
2022-10-13T00:03:27.525Z,18.93
2022-10-13T00:03:37.545Z,18.95
2022-10-13T00:03:47.548Z,18.94
2022-10-13T00:03:57.542Z,18.93
2022-10-13T00:04:07.546Z,18.93
2022-10-13T00:04:17.530Z,18.93
2022-10-13T00:04:27.546Z,18.93
2022-10-13T00:04:37.547Z,18.93
2022-10-13T00:04:47.550Z,18.93
2022-10-13T00:04:57.547Z,18.94
2022-10-13T00:05:07.547Z,18.93
2022-10-13T00:05:17.565Z,18.95
2022-10-13T00:05:27.550Z,18.95
2022-10-13T00:05:37.552Z,18.94
2022-10-13T00:05:47.551Z,18.95
2022-10-13T00:05:57.537Z,18.96
2022-10-13T00:06:07.553Z,18.94
2022-10-13T00:06:17.550Z,18.94
2022-10-13T00:06:27.555Z,18.96
2022-10-13T00:06:37.561Z,18.95
2022-10-13T00:06:47.554Z,18.96
2022-10-13T00:06:57.556Z,18.94
2022-10-13T00:07:07.556Z,18.94
2022-10-13T00:07:17.559Z,18.95
2022-10-13T00:07:27.554Z,18.96
2022-10-13T00:07:37.562Z,18.96
2022-10-13T00:07:47.557Z,18.95
2022-10-13T00:07:57.564Z,18.97
2022-10-13T00:08:07.563Z,18.96
2022-10-13T00:08:17.561Z,18.96
2022-10-13T00:08:27.561Z,18.95
2022-10-13T00:08:37.560Z,18.95
2022-10-13T00:08:47.558Z,18.96
2022-10-13T00:08:57.549Z,18.96
2022-10-13T00:09:07.566Z,18.96
2022-10-13T00:09:17.565Z,18.95
2022-10-13T00:09:27.568Z,18.95
2022-10-13T00:09:37.566Z,18.94
2022-10-13T00:09:47.571Z,18.94
2022-10-13T00:09:57.571Z,18.95
2022-10-13T00:10:07.572Z,18.94
2022-10-13T00:10:17.572Z,18.95
2022-10-13T00:10:27.573Z,18.93
2022-10-13T00:10:37.573Z,18.94
2022-10-13T00:10:47.586Z,18.94
2022-10-13T00:10:57.559Z,18.94
2022-10-13T00:11:07.577Z,18.95
2022-10-13T00:11:17.560Z,18.94
2022-10-13T00:11:27.562Z,18.95
2022-10-13T00:11:37.577Z,18.95
2022-10-13T00:11:47.577Z,18.94
2022-10-13T00:11:57.580Z,18.96
2022-10-13T00:12:07.563Z,18.94
2022-10-13T00:12:17.799Z,18.94
2022-10-13T00:12:27.581Z,18.95
2022-10-13T00:12:37.583Z,18.93
2022-10-13T00:12:47.583Z,18.95
2022-10-13T00:12:57.581Z,18.94
2022-10-13T00:13:07.595Z,18.95
2022-10-13T00:13:17.586Z,18.95
2022-10-13T00:13:27.586Z,18.94
2022-10-13T00:13:37.588Z,18.95
2022-10-13T00:13:47.591Z,18.96
2022-10-13T00:13:57.588Z,18.95
2022-10-13T00:14:07.590Z,18.95
2022-10-13T00:14:17.589Z,18.96
2022-10-13T00:14:27.591Z,18.95
2022-10-13T00:14:37.594Z,18.95
2022-10-13T00:14:47.594Z,18.97
2022-10-13T00:14:57.596Z,18.95
2022-10-13T00:15:07.594Z,18.97
2022-10-13T00:15:17.598Z,18.97
2022-10-13T00:15:27.597Z,18.96
2022-10-13T00:15:37.621Z,18.96
2022-10-13T00:15:47.600Z,18.97
2022-10-13T00:15:57.599Z,18.95
2022-10-13T00:16:07.596Z,18.96
2022-10-13T00:16:17.600Z,18.97
2022-10-13T00:16:27.600Z,18.97
2022-10-13T00:16:37.600Z,18.98
2022-10-13T00:16:47.601Z,18.97
2022-10-13T00:16:57.602Z,18.97
2022-10-13T00:17:07.603Z,18.95
2022-10-13T00:17:17.603Z,18.97
2022-10-13T00:17:27.605Z,18.97
2022-10-13T00:17:37.617Z,18.96
2022-10-13T00:17:47.607Z,18.97
2022-10-13T00:17:57.610Z,18.97
2022-10-13T00:18:07.619Z,18.95
2022-10-13T00:18:17.607Z,18.96
2022-10-13T00:18:27.611Z,18.95
2022-10-13T00:18:37.628Z,18.95
2022-10-13T00:18:47.619Z,18.95
2022-10-13T00:18:57.614Z,18.94
2022-10-13T00:19:10.651Z,18.95
2022-10-13T00:19:18.616Z,18.94
2022-10-13T00:19:27.617Z,18.95
2022-10-13T00:19:37.619Z,18.94
2022-10-13T00:19:47.625Z,18.94
2022-10-13T00:19:57.619Z,18.92
2022-10-13T00:20:07.619Z,18.93
2022-10-13T00:20:17.622Z,18.94
2022-10-13T00:20:27.617Z,18.94
2022-10-13T00:20:37.620Z,18.93
2022-10-13T00:20:47.625Z,18.95
2022-10-13T00:20:57.680Z,18.93
2022-10-13T00:21:07.620Z,18.95
2022-10-13T00:21:17.622Z,18.96
2022-10-13T00:21:27.624Z,18.94
2022-10-13T00:21:37.629Z,18.94
2022-10-13T00:21:47.628Z,18.96
2022-10-13T00:21:57.625Z,18.94
2022-10-13T00:22:07.625Z,18.95
2022-10-13T00:22:17.883Z,18.94
2022-10-13T00:22:27.626Z,18.95
2022-10-13T00:22:37.666Z,18.96
2022-10-13T00:22:47.628Z,18.97
2022-10-13T00:22:57.613Z,18.97
2022-10-13T00:23:07.629Z,18.96
2022-10-13T00:23:17.628Z,18.96
2022-10-13T00:23:27.631Z,18.96
2022-10-13T00:23:37.632Z,18.95
2022-10-13T00:23:47.652Z,18.97
2022-10-13T00:23:57.635Z,18.96
2022-10-13T00:24:07.635Z,18.97
2022-10-13T00:24:17.636Z,18.97
2022-10-13T00:24:27.633Z,18.96
2022-10-13T00:24:37.625Z,18.97
2022-10-13T00:24:47.642Z,18.97
2022-10-13T00:24:57.638Z,18.98
2022-10-13T00:25:07.639Z,18.96
2022-10-13T00:25:17.641Z,18.96
2022-10-13T00:25:27.639Z,18.96
2022-10-13T00:25:37.626Z,18.97
2022-10-13T00:25:47.644Z,18.96
2022-10-13T00:25:57.641Z,18.95
2022-10-13T00:26:07.641Z,18.96
2022-10-13T00:26:17.643Z,18.95
2022-10-13T00:26:27.646Z,18.96
2022-10-13T00:26:37.645Z,18.95
2022-10-13T00:26:47.636Z,18.96
2022-10-13T00:26:57.643Z,18.95
2022-10-13T00:27:07.646Z,18.95
2022-10-13T00:27:17.649Z,18.96
2022-10-13T00:27:27.658Z,18.95
2022-10-13T00:27:37.649Z,18.95
2022-10-13T00:27:47.659Z,18.96
2022-10-13T00:27:57.636Z,18.95
2022-10-13T00:28:07.656Z,18.96
2022-10-13T00:28:17.683Z,18.95
2022-10-13T00:28:27.678Z,18.96
2022-10-13T00:28:37.736Z,18.96
2022-10-13T00:28:52.268Z,18.96
2022-10-13T00:28:58.701Z,18.92
2022-10-13T00:29:07.675Z,18.92
2022-10-13T00:29:17.657Z,18.94
2022-10-13T00:29:27.661Z,18.94
2022-10-13T00:29:37.661Z,18.93
2022-10-13T00:29:47.675Z,18.94
2022-10-13T00:29:57.660Z,18.94
2022-10-13T00:30:07.662Z,18.94
2022-10-13T00:30:17.663Z,18.94
2022-10-13T00:30:27.664Z,18.94
2022-10-13T00:30:37.663Z,18.95
2022-10-13T00:30:47.672Z,18.94
2022-10-13T00:30:57.668Z,18.96
2022-10-13T00:31:07.667Z,18.95
2022-10-13T00:31:17.666Z,18.95
2022-10-13T00:31:27.665Z,18.96
2022-10-13T00:31:37.671Z,18.96
2022-10-13T00:31:47.670Z,18.96
2022-10-13T00:31:57.653Z,18.95
2022-10-13T00:32:07.671Z,18.96
2022-10-13T00:32:17.919Z,18.97
2022-10-13T00:32:27.672Z,18.96
2022-10-13T00:32:37.672Z,18.96
2022-10-13T00:32:47.678Z,18.95
2022-10-13T00:32:57.674Z,18.95
2022-10-13T00:33:07.683Z,18.95
2022-10-13T00:33:17.680Z,18.96
2022-10-13T00:33:27.684Z,18.95
2022-10-13T00:33:37.678Z,18.94
2022-10-13T00:33:47.680Z,18.96
2022-10-13T00:33:57.682Z,18.95
2022-10-13T00:34:07.681Z,18.96
2022-10-13T00:34:17.685Z,18.95
2022-10-13T00:34:27.684Z,18.94
2022-10-13T00:34:37.691Z,18.95
2022-10-13T00:34:47.681Z,18.96
2022-10-13T00:34:57.689Z,18.96
2022-10-13T00:35:07.689Z,18.95
2022-10-13T00:35:17.689Z,18.95
2022-10-13T00:35:27.688Z,18.95
2022-10-13T00:35:37.694Z,18.95
2022-10-13T00:35:47.690Z,18.96
2022-10-13T00:35:57.691Z,18.93
2022-10-13T00:36:07.693Z,18.96
2022-10-13T00:36:17.693Z,18.95
2022-10-13T00:36:27.694Z,18.94
2022-10-13T00:36:37.694Z,18.94
2022-10-13T00:36:47.695Z,18.95
2022-10-13T00:36:57.699Z,18.95
2022-10-13T00:37:07.705Z,18.96
2022-10-13T00:37:17.700Z,18.95
2022-10-13T00:37:27.684Z,18.95
2022-10-13T00:37:37.700Z,18.96
2022-10-13T00:37:47.689Z,18.95
2022-10-13T00:37:57.704Z,18.96
2022-10-13T00:38:07.690Z,18.96
2022-10-13T00:38:17.704Z,18.95
2022-10-13T00:38:27.704Z,18.95
2022-10-13T00:38:37.707Z,18.96
2022-10-13T00:38:47.706Z,18.95
2022-10-13T00:38:57.712Z,18.94
2022-10-13T00:39:07.706Z,18.95
2022-10-13T00:39:17.708Z,18.95
2022-10-13T00:39:27.713Z,18.95
2022-10-13T00:39:37.711Z,18.96
2022-10-13T00:39:47.710Z,18.94
2022-10-13T00:39:57.711Z,18.95
2022-10-13T00:40:07.711Z,18.94
2022-10-13T00:40:17.713Z,18.95
2022-10-13T00:40:27.714Z,18.95
2022-10-13T00:40:37.715Z,18.95
2022-10-13T00:40:47.722Z,18.94
2022-10-13T00:40:57.718Z,18.95
2022-10-13T00:41:07.714Z,18.96
2022-10-13T00:41:17.718Z,18.95
2022-10-13T00:41:27.725Z,18.96
2022-10-13T00:41:37.720Z,18.94
2022-10-13T00:41:47.719Z,18.94
2022-10-13T00:41:57.725Z,18.94
2022-10-13T00:42:07.721Z,18.94
2022-10-13T00:42:17.948Z,18.94
2022-10-13T00:42:27.726Z,18.94
2022-10-13T00:42:37.725Z,18.95
2022-10-13T00:42:47.730Z,18.94
2022-10-13T00:42:57.725Z,18.92
2022-10-13T00:43:07.729Z,18.96
2022-10-13T00:43:17.731Z,18.95
2022-10-13T00:43:27.735Z,18.95
2022-10-13T00:43:37.730Z,18.96
2022-10-13T00:43:47.736Z,18.96
2022-10-13T00:43:57.733Z,18.95
2022-10-13T00:44:07.733Z,18.95
2022-10-13T00:44:17.737Z,18.95
2022-10-13T00:44:27.732Z,18.95
2022-10-13T00:44:37.735Z,18.95
2022-10-13T00:44:47.737Z,18.93
2022-10-13T00:44:57.735Z,18.95
2022-10-13T00:45:07.735Z,18.94
2022-10-13T00:45:17.734Z,18.94
2022-10-13T00:45:27.736Z,18.94
2022-10-13T00:45:37.739Z,18.96
2022-10-13T00:45:47.741Z,18.94
2022-10-13T00:45:57.738Z,18.95
2022-10-13T00:46:07.738Z,18.96
2022-10-13T00:46:17.741Z,18.95
2022-10-13T00:46:27.741Z,18.95
2022-10-13T00:46:37.743Z,18.95
2022-10-13T00:46:47.729Z,18.95
2022-10-13T00:46:57.746Z,18.95
2022-10-13T00:47:07.748Z,18.95
2022-10-13T00:47:17.747Z,18.94
2022-10-13T00:47:27.749Z,18.95
2022-10-13T00:47:37.784Z,18.95
2022-10-13T00:47:47.751Z,18.94
2022-10-13T00:47:57.750Z,18.93
2022-10-13T00:48:07.734Z,18.94
2022-10-13T00:48:17.751Z,18.94
2022-10-13T00:48:27.762Z,18.94
2022-10-13T00:48:37.752Z,18.94
2022-10-13T00:48:47.744Z,18.95
2022-10-13T00:48:57.755Z,18.93
2022-10-13T00:49:07.758Z,18.93
2022-10-13T00:49:17.743Z,18.94
2022-10-13T00:49:27.758Z,18.93
2022-10-13T00:49:37.761Z,18.93
2022-10-13T00:49:47.759Z,18.92
2022-10-13T00:49:57.762Z,18.93
2022-10-13T00:50:07.764Z,18.92
2022-10-13T00:50:17.762Z,18.91
2022-10-13T00:50:27.763Z,18.92
2022-10-13T00:50:37.766Z,18.93
2022-10-13T00:50:47.765Z,18.93
2022-10-13T00:50:57.764Z,18.93
2022-10-13T00:51:07.769Z,18.93
2022-10-13T00:51:17.767Z,18.93
2022-10-13T00:51:27.768Z,18.92
2022-10-13T00:51:37.768Z,18.92
2022-10-13T00:51:47.771Z,18.92
2022-10-13T00:51:57.770Z,18.93
2022-10-13T00:52:07.756Z,18.93
2022-10-13T00:52:18.165Z,18.92
2022-10-13T00:52:27.775Z,18.92
2022-10-13T00:52:37.775Z,18.92
2022-10-13T00:52:47.778Z,18.93
2022-10-13T00:52:57.773Z,18.93
2022-10-13T00:53:07.774Z,18.92
2022-10-13T00:53:17.775Z,18.92
2022-10-13T00:53:27.780Z,18.94
2022-10-13T00:53:37.779Z,18.93
2022-10-13T00:53:47.778Z,18.94
2022-10-13T00:53:57.779Z,18.94
2022-10-13T00:54:07.778Z,18.92
2022-10-13T00:54:17.781Z,18.92
2022-10-13T00:54:27.789Z,18.93
2022-10-13T00:54:37.786Z,18.95
2022-10-13T00:54:47.782Z,18.94
2022-10-13T00:54:57.785Z,18.94
2022-10-13T00:55:07.786Z,18.94
2022-10-13T00:55:17.784Z,18.94
2022-10-13T00:55:27.790Z,18.95
2022-10-13T00:55:37.786Z,18.93
2022-10-13T00:55:47.787Z,18.93
2022-10-13T00:55:57.787Z,18.93
2022-10-13T00:56:07.782Z,18.93
2022-10-13T00:56:17.791Z,18.95
2022-10-13T00:56:27.798Z,18.95
2022-10-13T00:56:37.793Z,18.93
2022-10-13T00:56:47.793Z,18.93
2022-10-13T00:56:57.793Z,18.92
2022-10-13T00:57:07.794Z,18.90
2022-10-13T00:57:17.800Z,18.93
2022-10-13T00:57:27.796Z,18.92
2022-10-13T00:57:37.800Z,18.93
2022-10-13T00:57:47.801Z,18.92
2022-10-13T00:58:02.671Z,18.93
2022-10-13T00:58:08.800Z,18.89
2022-10-13T00:58:17.802Z,18.90
2022-10-13T00:58:27.802Z,18.91
2022-10-13T00:58:37.791Z,18.93
2022-10-13T00:58:47.808Z,18.92
2022-10-13T00:58:57.806Z,18.90
2022-10-13T00:59:07.805Z,18.91
2022-10-13T00:59:17.813Z,18.91
2022-10-13T00:59:27.806Z,18.92
2022-10-13T00:59:37.811Z,18.92
2022-10-13T00:59:47.793Z,18.92
2022-10-13T00:59:57.794Z,18.91
2022-10-13T01:00:07.808Z,18.91
2022-10-13T01:00:17.810Z,18.92
2022-10-13T01:00:27.841Z,18.91
2022-10-13T01:00:37.844Z,18.93
2022-10-13T01:00:47.849Z,18.93
2022-10-13T01:00:57.980Z,18.91
2022-10-13T01:01:07.863Z,18.91
2022-10-13T01:01:17.836Z,18.92
2022-10-13T01:01:27.815Z,18.92
2022-10-13T01:01:37.818Z,18.91
2022-10-13T01:01:47.815Z,18.91
2022-10-13T01:01:57.816Z,18.92
2022-10-13T01:02:07.816Z,18.92
2022-10-13T01:02:18.131Z,18.92
2022-10-13T01:02:27.819Z,18.91
2022-10-13T01:02:37.819Z,18.91
2022-10-13T01:02:47.823Z,18.92
2022-10-13T01:02:57.822Z,18.90
2022-10-13T01:03:07.822Z,18.92
2022-10-13T01:03:17.824Z,18.92
2022-10-13T01:03:27.824Z,18.92
2022-10-13T01:03:37.823Z,18.90
2022-10-13T01:03:47.825Z,18.92
2022-10-13T01:03:57.823Z,18.91
2022-10-13T01:04:07.826Z,18.91
2022-10-13T01:04:17.826Z,18.91
2022-10-13T01:04:27.830Z,18.91
2022-10-13T01:04:37.828Z,18.93
2022-10-13T01:04:47.830Z,18.93
2022-10-13T01:04:57.831Z,18.93
2022-10-13T01:05:07.829Z,18.94
2022-10-13T01:05:17.836Z,18.93
2022-10-13T01:05:27.833Z,18.92
2022-10-13T01:05:37.833Z,18.93
2022-10-13T01:05:47.836Z,18.93
2022-10-13T01:05:57.836Z,18.92
2022-10-13T01:06:07.837Z,18.93
2022-10-13T01:06:22.508Z,18.93
2022-10-13T01:06:28.839Z,18.89
2022-10-13T01:06:37.838Z,18.89
2022-10-13T01:06:47.839Z,18.90
2022-10-13T01:06:57.840Z,18.90
2022-10-13T01:07:07.840Z,18.91
2022-10-13T01:07:17.846Z,18.91
2022-10-13T01:07:27.844Z,18.90
2022-10-13T01:07:37.843Z,18.91
2022-10-13T01:07:47.850Z,18.91
2022-10-13T01:07:57.857Z,18.90
2022-10-13T01:08:07.847Z,18.90
2022-10-13T01:08:17.847Z,18.89
2022-10-13T01:08:27.847Z,18.90
2022-10-13T01:08:37.850Z,18.90
2022-10-13T01:08:47.851Z,18.91
2022-10-13T01:08:57.850Z,18.92
2022-10-13T01:09:07.856Z,18.92
2022-10-13T01:09:17.854Z,18.91
2022-10-13T01:09:27.858Z,18.94
2022-10-13T01:09:37.933Z,18.93
2022-10-13T01:09:47.855Z,18.91
2022-10-13T01:09:57.856Z,18.91
2022-10-13T01:10:07.857Z,18.92
2022-10-13T01:10:17.859Z,18.92
2022-10-13T01:10:27.858Z,18.91
2022-10-13T01:10:37.863Z,18.92
2022-10-13T01:10:47.860Z,18.92
2022-10-13T01:10:57.860Z,18.93
2022-10-13T01:11:07.859Z,18.93
2022-10-13T01:11:17.860Z,18.92
2022-10-13T01:11:27.848Z,18.92
2022-10-13T01:11:37.851Z,18.93
2022-10-13T01:11:47.874Z,18.91
2022-10-13T01:11:57.867Z,18.92
2022-10-13T01:12:07.853Z,18.92
2022-10-13T01:12:18.124Z,18.91
2022-10-13T01:12:27.877Z,18.89
2022-10-13T01:12:37.869Z,18.92
2022-10-13T01:12:47.870Z,18.92
2022-10-13T01:12:57.872Z,18.90
2022-10-13T01:13:07.872Z,18.91
2022-10-13T01:13:17.870Z,18.91
2022-10-13T01:13:27.871Z,18.88
2022-10-13T01:13:37.877Z,18.91
2022-10-13T01:13:47.874Z,18.89
2022-10-13T01:13:57.873Z,18.90
2022-10-13T01:14:07.877Z,18.90
2022-10-13T01:14:17.876Z,18.91
2022-10-13T01:14:27.878Z,18.90
2022-10-13T01:14:37.878Z,18.91
2022-10-13T01:14:47.879Z,18.89
2022-10-13T01:14:57.879Z,18.92
2022-10-13T01:15:07.865Z,18.91
2022-10-13T01:15:17.903Z,18.90
2022-10-13T01:15:27.885Z,18.91
2022-10-13T01:15:37.884Z,18.90
2022-10-13T01:15:47.885Z,18.90
2022-10-13T01:15:57.885Z,18.89
2022-10-13T01:16:07.886Z,18.91
2022-10-13T01:16:17.887Z,18.89
2022-10-13T01:16:27.886Z,18.91
2022-10-13T01:16:37.890Z,18.91
2022-10-13T01:16:47.888Z,18.92
2022-10-13T01:16:57.891Z,18.91
2022-10-13T01:17:07.890Z,18.92
2022-10-13T01:17:17.897Z,18.90
2022-10-13T01:17:27.896Z,18.90
2022-10-13T01:17:37.894Z,18.92
2022-10-13T01:17:47.898Z,18.91
2022-10-13T01:17:57.895Z,18.91
2022-10-13T01:18:07.902Z,18.91
2022-10-13T01:18:17.898Z,18.92
2022-10-13T01:18:27.901Z,18.91
2022-10-13T01:18:37.904Z,18.92
2022-10-13T01:18:47.886Z,18.92
2022-10-13T01:18:57.904Z,18.91
2022-10-13T01:19:07.902Z,18.91
2022-10-13T01:19:17.904Z,18.91
2022-10-13T01:19:27.905Z,18.91
2022-10-13T01:19:37.903Z,18.90
2022-10-13T01:19:47.896Z,18.90
2022-10-13T01:19:57.908Z,18.89
2022-10-13T01:20:07.907Z,18.90
2022-10-13T01:20:17.911Z,18.90
2022-10-13T01:20:27.907Z,18.89
2022-10-13T01:20:37.895Z,18.90
2022-10-13T01:20:47.909Z,18.89
2022-10-13T01:20:57.912Z,18.90
2022-10-13T01:21:07.909Z,18.91
2022-10-13T01:21:17.913Z,18.89
2022-10-13T01:21:27.913Z,18.88
2022-10-13T01:21:37.918Z,18.90
2022-10-13T01:21:47.915Z,18.89
2022-10-13T01:21:57.913Z,18.89
2022-10-13T01:22:07.917Z,18.91
2022-10-13T01:22:18.237Z,18.90
2022-10-13T01:22:27.916Z,18.88
2022-10-13T01:22:37.917Z,18.89
2022-10-13T01:22:47.925Z,18.90
2022-10-13T01:22:57.918Z,18.88
2022-10-13T01:23:07.920Z,18.90
2022-10-13T01:23:17.923Z,18.89
2022-10-13T01:23:27.921Z,18.88
2022-10-13T01:23:37.924Z,18.89
2022-10-13T01:23:47.923Z,18.88
2022-10-13T01:23:57.924Z,18.87
2022-10-13T01:24:07.923Z,18.89
2022-10-13T01:24:17.923Z,18.89
2022-10-13T01:24:27.912Z,18.89
2022-10-13T01:24:37.911Z,18.89
2022-10-13T01:24:47.925Z,18.88
2022-10-13T01:24:57.930Z,18.89
2022-10-13T01:25:07.930Z,18.89
2022-10-13T01:25:17.931Z,18.89
2022-10-13T01:25:27.932Z,18.88
2022-10-13T01:25:37.929Z,18.88
2022-10-13T01:25:47.928Z,18.89
2022-10-13T01:25:57.933Z,18.87
2022-10-13T01:26:07.932Z,18.89
2022-10-13T01:26:17.919Z,18.89
2022-10-13T01:26:27.936Z,18.87
2022-10-13T01:26:37.935Z,18.88
2022-10-13T01:26:47.936Z,18.88
2022-10-13T01:26:57.938Z,18.88
2022-10-13T01:27:07.923Z,18.88
2022-10-13T01:27:17.937Z,18.88
2022-10-13T01:27:27.941Z,18.86
2022-10-13T01:27:37.939Z,18.87
2022-10-13T01:27:47.948Z,18.87
2022-10-13T01:27:57.943Z,18.86
2022-10-13T01:28:07.945Z,18.87
2022-10-13T01:28:17.974Z,18.87
2022-10-13T01:28:27.975Z,18.89
2022-10-13T01:28:37.986Z,18.89
2022-10-13T01:28:47.964Z,18.88
2022-10-13T01:28:57.948Z,18.90
2022-10-13T01:29:07.947Z,18.87
2022-10-13T01:29:17.951Z,18.89
2022-10-13T01:29:27.948Z,18.88
2022-10-13T01:29:37.949Z,18.88
2022-10-13T01:29:47.950Z,18.88
2022-10-13T01:29:57.937Z,18.89
2022-10-13T01:30:07.958Z,18.89
2022-10-13T01:30:17.957Z,18.89
2022-10-13T01:30:27.956Z,18.89
2022-10-13T01:30:37.955Z,18.88
2022-10-13T01:30:47.941Z,18.87
2022-10-13T01:30:57.959Z,18.90
2022-10-13T01:31:07.958Z,18.88
2022-10-13T01:31:17.959Z,18.89
2022-10-13T01:31:27.961Z,18.89
2022-10-13T01:31:37.961Z,18.87
2022-10-13T01:31:47.964Z,18.87
2022-10-13T01:31:57.963Z,18.86
2022-10-13T01:32:07.966Z,18.88
2022-10-13T01:32:18.165Z,18.87
2022-10-13T01:32:27.965Z,18.86
2022-10-13T01:32:37.973Z,18.88
2022-10-13T01:32:47.971Z,18.88
2022-10-13T01:32:57.970Z,18.87
2022-10-13T01:33:07.955Z,18.87
2022-10-13T01:33:17.997Z,18.86
2022-10-13T01:33:27.970Z,18.85
2022-10-13T01:33:37.971Z,18.86
2022-10-13T01:33:47.974Z,18.87
2022-10-13T01:33:57.975Z,18.86
2022-10-13T01:34:07.974Z,18.87
2022-10-13T01:34:17.976Z,18.87
2022-10-13T01:34:27.979Z,18.88
2022-10-13T01:34:37.978Z,18.88
2022-10-13T01:34:47.980Z,18.88
2022-10-13T01:34:57.977Z,18.88
2022-10-13T01:35:07.979Z,18.89
2022-10-13T01:35:17.989Z,18.88
2022-10-13T01:35:27.981Z,18.88
2022-10-13T01:35:37.980Z,18.88
2022-10-13T01:35:47.982Z,18.85
2022-10-13T01:35:57.984Z,18.85
2022-10-13T01:36:07.986Z,18.85
2022-10-13T01:36:17.985Z,18.86
2022-10-13T01:36:27.987Z,18.87
2022-10-13T01:36:37.987Z,18.85
2022-10-13T01:36:47.984Z,18.86
2022-10-13T01:36:57.990Z,18.85
2022-10-13T01:37:07.990Z,18.85
2022-10-13T01:37:17.993Z,18.85
2022-10-13T01:37:27.993Z,18.85
2022-10-13T01:37:37.976Z,18.85
2022-10-13T01:37:48.014Z,18.83
2022-10-13T01:37:57.999Z,18.84
2022-10-13T01:38:08.000Z,18.84
2022-10-13T01:38:17.996Z,18.86
2022-10-13T01:38:28.001Z,18.85
2022-10-13T01:38:37.998Z,18.84
2022-10-13T01:38:47.998Z,18.85
2022-10-13T01:38:58.005Z,18.87
2022-10-13T01:39:08.011Z,18.86
2022-10-13T01:39:18.027Z,18.85
2022-10-13T01:39:28.003Z,18.86
2022-10-13T01:39:37.989Z,18.86
2022-10-13T01:39:48.019Z,18.86
2022-10-13T01:39:58.005Z,18.86
2022-10-13T01:40:08.006Z,18.83
2022-10-13T01:40:17.991Z,18.85
2022-10-13T01:40:28.006Z,18.86
2022-10-13T01:40:38.008Z,18.86
2022-10-13T01:40:48.012Z,18.85
2022-10-13T01:40:58.012Z,18.86
2022-10-13T01:41:10.626Z,18.86
2022-10-13T01:41:18.042Z,18.83
2022-10-13T01:41:28.013Z,18.83
2022-10-13T01:41:38.015Z,18.85
2022-10-13T01:41:48.015Z,18.85
2022-10-13T01:41:58.016Z,18.85
2022-10-13T01:42:09.269Z,18.84
2022-10-13T01:42:18.264Z,18.85
2022-10-13T01:42:28.020Z,18.84
2022-10-13T01:42:38.019Z,18.86
2022-10-13T01:42:48.020Z,18.85
2022-10-13T01:42:58.021Z,18.85
2022-10-13T01:43:08.021Z,18.85
2022-10-13T01:43:18.025Z,18.85
2022-10-13T01:43:28.031Z,18.85
2022-10-13T01:43:38.024Z,18.84
2022-10-13T01:43:48.028Z,18.84
2022-10-13T01:43:58.027Z,18.84
2022-10-13T01:44:08.027Z,18.84
2022-10-13T01:44:18.030Z,18.85
2022-10-13T01:44:28.066Z,18.86
2022-10-13T01:44:38.029Z,18.86
2022-10-13T01:44:48.034Z,18.85
2022-10-13T01:44:58.033Z,18.85
2022-10-13T01:45:08.034Z,18.84
2022-10-13T01:45:18.034Z,18.85
2022-10-13T01:45:28.035Z,18.84
2022-10-13T01:45:38.039Z,18.83
2022-10-13T01:45:48.037Z,18.85
2022-10-13T01:45:58.037Z,18.85
2022-10-13T01:46:08.035Z,18.85
2022-10-13T01:46:18.035Z,18.85
2022-10-13T01:46:28.039Z,18.84
2022-10-13T01:46:38.041Z,18.84
2022-10-13T01:46:48.040Z,18.84
2022-10-13T01:46:58.041Z,18.87
2022-10-13T01:47:08.041Z,18.86
2022-10-13T01:47:18.071Z,18.85
2022-10-13T01:47:28.046Z,18.86
2022-10-13T01:47:38.048Z,18.85
2022-10-13T01:47:48.062Z,18.86
2022-10-13T01:47:58.047Z,18.85
2022-10-13T01:48:08.047Z,18.86
2022-10-13T01:48:18.051Z,18.86
2022-10-13T01:48:28.048Z,18.86
2022-10-13T01:48:38.048Z,18.87
2022-10-13T01:48:48.049Z,18.85
2022-10-13T01:48:58.049Z,18.86
2022-10-13T01:49:08.050Z,18.86
2022-10-13T01:49:18.057Z,18.86
2022-10-13T01:49:28.055Z,18.85
2022-10-13T01:49:38.054Z,18.86
2022-10-13T01:49:48.057Z,18.86
2022-10-13T01:49:58.054Z,18.85
2022-10-13T01:50:08.053Z,18.85
2022-10-13T01:50:18.055Z,18.84
2022-10-13T01:50:28.056Z,18.85
2022-10-13T01:50:38.057Z,18.86
2022-10-13T01:50:48.058Z,18.86
2022-10-13T01:50:58.059Z,18.86
2022-10-13T01:51:08.062Z,18.85
2022-10-13T01:51:18.062Z,18.85
2022-10-13T01:51:28.064Z,18.85
2022-10-13T01:51:38.065Z,18.85
2022-10-13T01:51:48.067Z,18.86
2022-10-13T01:51:58.065Z,18.85
2022-10-13T01:52:08.065Z,18.85
2022-10-13T01:52:18.340Z,18.85
2022-10-13T01:52:28.069Z,18.84
2022-10-13T01:52:38.069Z,18.85
2022-10-13T01:52:48.083Z,18.84
2022-10-13T01:52:58.069Z,18.86
2022-10-13T01:53:08.068Z,18.86
2022-10-13T01:53:18.067Z,18.84
2022-10-13T01:53:28.070Z,18.85
2022-10-13T01:53:38.074Z,18.85
2022-10-13T01:53:48.079Z,18.86
2022-10-13T01:53:58.058Z,18.86
2022-10-13T01:54:08.073Z,18.85
2022-10-13T01:54:18.074Z,18.85
2022-10-13T01:54:28.098Z,18.85
2022-10-13T01:54:38.058Z,18.84
2022-10-13T01:54:48.077Z,18.84
2022-10-13T01:54:58.061Z,18.86
2022-10-13T01:55:08.075Z,18.84
2022-10-13T01:55:18.114Z,18.83
2022-10-13T01:55:28.076Z,18.84
2022-10-13T01:55:38.077Z,18.84
2022-10-13T01:55:48.080Z,18.85
2022-10-13T01:55:58.079Z,18.84
2022-10-13T01:56:08.081Z,18.85
2022-10-13T01:56:18.082Z,18.84
2022-10-13T01:56:28.082Z,18.84
2022-10-13T01:56:38.083Z,18.84
2022-10-13T01:56:48.071Z,18.84
2022-10-13T01:56:58.085Z,18.85
2022-10-13T01:57:08.072Z,18.84
2022-10-13T01:57:18.093Z,18.85
2022-10-13T01:57:28.088Z,18.85
2022-10-13T01:57:38.090Z,18.84
2022-10-13T01:57:48.124Z,18.83
2022-10-13T01:57:58.091Z,18.83
2022-10-13T01:58:08.091Z,18.85
2022-10-13T01:58:18.099Z,18.84
2022-10-13T01:58:28.094Z,18.85
2022-10-13T01:58:38.099Z,18.85
2022-10-13T01:58:48.093Z,18.84
2022-10-13T01:58:58.096Z,18.85
2022-10-13T01:59:08.096Z,18.84
2022-10-13T01:59:18.132Z,18.84
2022-10-13T01:59:28.099Z,18.84
2022-10-13T01:59:38.110Z,18.85
2022-10-13T01:59:48.099Z,18.85
2022-10-13T01:59:58.087Z,18.85
2022-10-13T02:00:08.103Z,18.86
2022-10-13T02:00:18.101Z,18.85
2022-10-13T02:00:28.126Z,18.85
2022-10-13T02:00:38.154Z,18.84
2022-10-13T02:00:48.154Z,18.84
2022-10-13T02:00:58.157Z,18.85
2022-10-13T02:01:08.128Z,18.84
2022-10-13T02:01:18.108Z,18.85
2022-10-13T02:01:28.107Z,18.85
2022-10-13T02:01:38.110Z,18.83
2022-10-13T02:01:48.097Z,18.85
2022-10-13T02:01:58.111Z,18.85
2022-10-13T02:02:08.113Z,18.85
2022-10-13T02:02:18.316Z,18.85
2022-10-13T02:02:28.112Z,18.84
2022-10-13T02:02:38.113Z,18.84
2022-10-13T02:02:48.152Z,18.84
2022-10-13T02:02:58.115Z,18.84
2022-10-13T02:03:08.119Z,18.84
2022-10-13T02:03:18.118Z,18.85
2022-10-13T02:03:28.120Z,18.86
2022-10-13T02:03:38.119Z,18.84
2022-10-13T02:03:48.131Z,18.84
2022-10-13T02:03:58.120Z,18.85
2022-10-13T02:04:08.124Z,18.87
2022-10-13T02:04:18.140Z,18.82
2022-10-13T02:04:28.122Z,18.84
2022-10-13T02:04:38.125Z,18.85
2022-10-13T02:04:48.136Z,18.85
2022-10-13T02:04:58.111Z,18.84
2022-10-13T02:05:08.130Z,18.85
2022-10-13T02:05:18.135Z,18.85
2022-10-13T02:05:28.128Z,18.85
2022-10-13T02:05:38.131Z,18.84
2022-10-13T02:05:48.131Z,18.85
2022-10-13T02:05:58.131Z,18.85
2022-10-13T02:06:08.132Z,18.85
2022-10-13T02:06:18.147Z,18.84
2022-10-13T02:06:28.130Z,18.84
2022-10-13T02:06:38.131Z,18.85
2022-10-13T02:06:48.132Z,18.85
2022-10-13T02:06:58.133Z,18.86
2022-10-13T02:07:08.135Z,18.85
2022-10-13T02:07:18.135Z,18.85
2022-10-13T02:07:28.136Z,18.84
2022-10-13T02:07:38.121Z,18.85
2022-10-13T02:07:48.139Z,18.85
2022-10-13T02:07:58.128Z,18.84
2022-10-13T02:08:08.138Z,18.84
2022-10-13T02:08:18.152Z,18.84
2022-10-13T02:08:28.142Z,18.85
2022-10-13T02:08:38.142Z,18.84
2022-10-13T02:08:48.144Z,18.86